sensor_id;sensor_type;location;lat;lon;timestamp;pressure;altitude;pressure_sealevel;temperature;humidity
50011;BME280;35899;50.352;19.390;2023-06-05T00:01:17;98332.56;;;10.92;51.36
50011;BME280;35899;50.352;19.390;2023-06-05T00:03:50;98328.58;;;10.81;51.27
50011;BME280;35899;50.352;19.390;2023-06-05T00:06:17;98333.05;;;10.71;51.54
50011;BME280;35899;50.352;19.390;2023-06-05T00:08:43;98331.55;;;10.70;51.78
50011;BME280;35899;50.352;19.390;2023-06-05T00:11:09;98328.90;;;10.74;52.00
50011;BME280;35899;50.352;19.390;2023-06-05T00:13:36;98327.59;;;10.75;52.08
50011;BME280;35899;50.352;19.390;2023-06-05T00:16:03;98328.17;;;10.74;52.21
50011;BME280;35899;50.352;19.390;2023-06-05T00:18:30;98328.73;;;10.73;52.34
50011;BME280;35899;50.352;19.390;2023-06-05T00:20:56;98327.98;;;10.74;52.23
50011;BME280;35899;50.352;19.390;2023-06-05T00:23:23;98325.42;;;10.74;52.34
50011;BME280;35899;50.352;19.390;2023-06-05T00:25:49;98323.93;;;10.73;52.49
50011;BME280;35899;50.352;19.390;2023-06-05T00:28:15;98319.91;;;10.71;52.76
50011;BME280;35899;50.352;19.390;2023-06-05T00:30:42;98318.41;;;10.67;52.41
50011;BME280;35899;50.352;19.390;2023-06-05T00:33:08;98317.98;;;10.52;52.47
50011;BME280;35899;50.352;19.390;2023-06-05T00:35:35;98319.23;;;10.41;52.61
50011;BME280;35899;50.352;19.390;2023-06-05T00:38:02;98318.51;;;10.35;52.69
50011;BME280;35899;50.352;19.390;2023-06-05T00:40:28;98317.21;;;10.34;52.76
50011;BME280;35899;50.352;19.390;2023-06-05T00:42:55;98314.54;;;10.35;52.93
50011;BME280;35899;50.352;19.390;2023-06-05T00:45:21;98317.02;;;10.40;53.16
50011;BME280;35899;50.352;19.390;2023-06-05T00:47:48;98313.67;;;10.43;53.18
50011;BME280;35899;50.352;19.390;2023-06-05T00:50:14;98310.83;;;10.42;53.25
50011;BME280;35899;50.352;19.390;2023-06-05T00:52:41;98308.48;;;10.38;53.20
50011;BME280;35899;50.352;19.390;2023-06-05T00:55:08;98304.77;;;10.40;53.53
50011;BME280;35899;50.352;19.390;2023-06-05T00:57:35;98304.22;;;10.40;53.52
50011;BME280;35899;50.352;19.390;2023-06-05T01:00:02;98311.78;;;10.38;53.33
50011;BME280;35899;50.352;19.390;2023-06-05T01:02:29;98311.23;;;10.36;53.30
50011;BME280;35899;50.352;19.390;2023-06-05T01:04:56;98310.10;;;10.34;53.42
50011;BME280;35899;50.352;19.390;2023-06-05T01:07:23;98308.54;;;10.34;53.90
50011;BME280;35899;50.352;19.390;2023-06-05T01:09:50;98307.70;;;10.34;53.66
50011;BME280;35899;50.352;19.390;2023-06-05T01:15:02;98308.19;;;10.26;53.65
50011;BME280;35899;50.352;19.390;2023-06-05T01:17:29;98305.23;;;10.20;53.70
50011;BME280;35899;50.352;19.390;2023-06-05T01:19:56;98302.95;;;10.12;53.51
50011;BME280;35899;50.352;19.390;2023-06-05T01:22:23;98301.77;;;10.09;53.55
50011;BME280;35899;50.352;19.390;2023-06-05T01:24:50;98302.02;;;10.11;53.81
50011;BME280;35899;50.352;19.390;2023-06-05T01:28:00;98301.33;;;10.14;53.89
50011;BME280;35899;50.352;19.390;2023-06-05T01:32:42;98298.16;;;10.14;54.31
50011;BME280;35899;50.352;19.390;2023-06-05T01:35:10;98298.99;;;10.15;54.26
50011;BME280;35899;50.352;19.390;2023-06-05T01:37:39;98297.63;;;10.14;54.26
50011;BME280;35899;50.352;19.390;2023-06-05T01:40:08;98302.52;;;10.11;54.13
50011;BME280;35899;50.352;19.390;2023-06-05T01:42:37;98300.77;;;10.06;54.22
50011;BME280;35899;50.352;19.390;2023-06-05T01:45:04;98304.58;;;9.98;54.03
50011;BME280;35899;50.352;19.390;2023-06-05T01:47:33;98305.21;;;9.90;54.11
50011;BME280;35899;50.352;19.390;2023-06-05T01:50:00;98301.03;;;9.88;54.31
50011;BME280;35899;50.352;19.390;2023-06-05T01:52:27;98302.48;;;9.87;54.29
50011;BME280;35899;50.352;19.390;2023-06-05T01:54:55;98302.55;;;9.86;54.50
50011;BME280;35899;50.352;19.390;2023-06-05T01:57:22;98300.82;;;9.86;54.65
50011;BME280;35899;50.352;19.390;2023-06-05T01:59:48;98299.65;;;9.88;54.66
50011;BME280;35899;50.352;19.390;2023-06-05T02:02:15;98298.71;;;9.89;54.71
50011;BME280;35899;50.352;19.390;2023-06-05T02:04:41;98297.05;;;9.91;54.75
50011;BME280;35899;50.352;19.390;2023-06-05T02:07:08;98297.63;;;9.90;54.77
50011;BME280;35899;50.352;19.390;2023-06-05T02:09:34;98295.88;;;9.90;54.74
50011;BME280;35899;50.352;19.390;2023-06-05T02:12:01;98296.52;;;9.93;54.86
50011;BME280;35899;50.352;19.390;2023-06-05T02:14:28;98296.23;;;9.96;55.09
50011;BME280;35899;50.352;19.390;2023-06-05T02:17:02;98291.66;;;9.97;54.91
50011;BME280;35899;50.352;19.390;2023-06-05T02:19:29;98290.84;;;9.96;54.88
50011;BME280;35899;50.352;19.390;2023-06-05T02:21:56;98294.08;;;9.92;54.74
50011;BME280;35899;50.352;19.390;2023-06-05T02:24:22;98293.42;;;9.91;54.89
50011;BME280;35899;50.352;19.390;2023-06-05T02:26:48;98295.55;;;9.87;54.97
50011;BME280;35899;50.352;19.390;2023-06-05T02:29:16;98292.25;;;9.84;55.09
50011;BME280;35899;50.352;19.390;2023-06-05T02:31:43;98295.16;;;9.85;55.14
50011;BME280;35899;50.352;19.390;2023-06-05T02:34:09;98296.02;;;9.85;55.21
50011;BME280;35899;50.352;19.390;2023-06-05T02:36:36;98296.13;;;9.80;55.21
50011;BME280;35899;50.352;19.390;2023-06-05T02:39:03;98296.22;;;9.78;55.07
50011;BME280;35899;50.352;19.390;2023-06-05T02:41:29;98293.35;;;9.80;55.32
50011;BME280;35899;50.352;19.390;2023-06-05T02:43:56;98288.92;;;9.82;55.21
50011;BME280;35899;50.352;19.390;2023-06-05T02:46:22;98288.16;;;9.86;55.74
50011;BME280;35899;50.352;19.390;2023-06-05T02:48:50;98288.16;;;9.86;55.48
50011;BME280;35899;50.352;19.390;2023-06-05T02:51:17;98287.70;;;9.88;55.64
50011;BME280;35899;50.352;19.390;2023-06-05T02:53:44;98289.66;;;9.90;55.63
50011;BME280;35899;50.352;19.390;2023-06-05T02:56:11;98289.19;;;9.89;55.78
50011;BME280;35899;50.352;19.390;2023-06-05T02:58:38;98290.65;;;9.91;55.63
50011;BME280;35899;50.352;19.390;2023-06-05T03:01:05;98291.95;;;9.95;55.56
50011;BME280;35899;50.352;19.390;2023-06-05T03:03:35;98292.68;;;10.00;55.75
50011;BME280;35899;50.352;19.390;2023-06-05T03:06:02;98297.02;;;10.02;55.69
50011;BME280;35899;50.352;19.390;2023-06-05T03:08:28;98293.31;;;10.06;55.63
50011;BME280;35899;50.352;19.390;2023-06-05T03:10:55;98293.01;;;10.11;55.59
50011;BME280;35899;50.352;19.390;2023-06-05T03:13:22;98293.16;;;10.14;55.81
50011;BME280;35899;50.352;19.390;2023-06-05T03:15:48;98296.58;;;10.15;55.92
50011;BME280;35899;50.352;19.390;2023-06-05T03:18:16;98293.85;;;10.17;55.96
50011;BME280;35899;50.352;19.390;2023-06-05T03:20:43;98296.48;;;10.25;55.84
50011;BME280;35899;50.352;19.390;2023-06-05T03:23:11;98296.98;;;10.34;55.90
50011;BME280;35899;50.352;19.390;2023-06-05T03:25:39;98303.17;;;10.43;55.97
50011;BME280;35899;50.352;19.390;2023-06-05T03:28:05;98297.99;;;10.50;55.76
50011;BME280;35899;50.352;19.390;2023-06-05T03:30:32;98299.24;;;10.58;56.02
50011;BME280;35899;50.352;19.390;2023-06-05T03:32:59;98300.14;;;10.69;56.07
50011;BME280;35899;50.352;19.390;2023-06-05T03:35:28;98297.67;;;10.80;55.84
50011;BME280;35899;50.352;19.390;2023-06-05T03:37:55;98297.60;;;10.92;55.79
50011;BME280;35899;50.352;19.390;2023-06-05T03:40:25;98296.70;;;11.03;55.62
50011;BME280;35899;50.352;19.390;2023-06-05T03:42:52;98298.29;;;11.15;55.74
50011;BME280;35899;50.352;19.390;2023-06-05T03:45:18;98296.48;;;11.27;55.55
50011;BME280;35899;50.352;19.390;2023-06-05T03:47:45;98293.77;;;11.39;55.42
50011;BME280;35899;50.352;19.390;2023-06-05T03:50:12;98294.48;;;11.51;55.38
50011;BME280;35899;50.352;19.390;2023-06-05T03:52:41;98292.55;;;11.65;54.98
50011;BME280;35899;50.352;19.390;2023-06-05T03:55:08;98295.08;;;11.76;54.93
50011;BME280;35899;50.352;19.390;2023-06-05T03:57:35;98296.59;;;11.86;54.93
50011;BME280;35899;50.352;19.390;2023-06-05T04:00:04;98296.74;;;12.00;54.75
50011;BME280;35899;50.352;19.390;2023-06-05T04:02:38;98294.19;;;12.14;54.88
50011;BME280;35899;50.352;19.390;2023-06-05T04:05:06;98297.55;;;12.28;55.02
50011;BME280;35899;50.352;19.390;2023-06-05T04:07:33;98297.33;;;12.41;54.85
50011;BME280;35899;50.352;19.390;2023-06-05T04:10:01;98296.34;;;12.54;54.67
50011;BME280;35899;50.352;19.390;2023-06-05T04:12:29;98291.04;;;12.70;54.68
50011;BME280;35899;50.352;19.390;2023-06-05T04:14:56;98293.13;;;12.84;54.36
50011;BME280;35899;50.352;19.390;2023-06-05T04:17:22;98295.07;;;12.98;54.12
50011;BME280;35899;50.352;19.390;2023-06-05T04:19:49;98294.81;;;13.08;53.97
50011;BME280;35899;50.352;19.390;2023-06-05T04:22:16;98297.77;;;13.22;53.68
50011;BME280;35899;50.352;19.390;2023-06-05T04:24:43;98292.67;;;13.38;53.68
50011;BME280;35899;50.352;19.390;2023-06-05T04:27:09;98291.91;;;13.48;53.54
50011;BME280;35899;50.352;19.390;2023-06-05T04:29:35;98290.19;;;13.59;53.31
50011;BME280;35899;50.352;19.390;2023-06-05T04:32:02;98291.05;;;13.70;52.89
50011;BME280;35899;50.352;19.390;2023-06-05T04:34:29;98289.05;;;13.76;52.48
50011;BME280;35899;50.352;19.390;2023-06-05T04:36:55;98286.95;;;13.83;52.29
50011;BME280;35899;50.352;19.390;2023-06-05T04:39:21;98285.98;;;13.93;52.35
50011;BME280;35899;50.352;19.390;2023-06-05T04:41:49;98287.18;;;14.02;52.52
50011;BME280;35899;50.352;19.390;2023-06-05T04:44:36;98291.55;;;14.13;52.45
50011;BME280;35899;50.352;19.390;2023-06-05T04:47:02;98290.98;;;14.20;52.41
50011;BME280;35899;50.352;19.390;2023-06-05T04:49:29;98289.86;;;14.30;52.35
50011;BME280;35899;50.352;19.390;2023-06-05T04:51:56;98290.17;;;14.41;52.11
50011;BME280;35899;50.352;19.390;2023-06-05T04:54:23;98290.29;;;14.48;52.21
50011;BME280;35899;50.352;19.390;2023-06-05T04:56:50;98295.48;;;14.60;52.10
50011;BME280;35899;50.352;19.390;2023-06-05T04:59:17;98296.48;;;14.69;51.90
50011;BME280;35899;50.352;19.390;2023-06-05T05:01:44;98297.02;;;14.76;52.04
50011;BME280;35899;50.352;19.390;2023-06-05T05:04:11;98291.68;;;14.86;52.36
50011;BME280;35899;50.352;19.390;2023-06-05T05:06:38;98292.57;;;14.98;52.42
50011;BME280;35899;50.352;19.390;2023-06-05T05:09:04;98293.36;;;15.10;52.12
50011;BME280;35899;50.352;19.390;2023-06-05T05:11:33;98290.61;;;15.22;52.13
50011;BME280;35899;50.352;19.390;2023-06-05T05:13:59;98290.23;;;15.35;51.96
50011;BME280;35899;50.352;19.390;2023-06-05T05:16:27;98288.55;;;15.46;52.00
50011;BME280;35899;50.352;19.390;2023-06-05T05:18:53;98289.29;;;15.56;52.03
50011;BME280;35899;50.352;19.390;2023-06-05T05:21:20;98290.27;;;15.65;52.11
50011;BME280;35899;50.352;19.390;2023-06-05T05:23:47;98293.02;;;15.76;51.99
50011;BME280;35899;50.352;19.390;2023-06-05T05:26:13;98289.98;;;15.86;51.70
50011;BME280;35899;50.352;19.390;2023-06-05T05:28:40;98291.98;;;15.95;52.03
50011;BME280;35899;50.352;19.390;2023-06-05T05:31:07;98289.26;;;16.06;52.15
50011;BME280;35899;50.352;19.390;2023-06-05T05:33:35;98289.58;;;16.16;52.25
50011;BME280;35899;50.352;19.390;2023-06-05T05:36:02;98287.89;;;16.32;52.25
50011;BME280;35899;50.352;19.390;2023-06-05T05:38:28;98287.80;;;16.45;52.59
50011;BME280;35899;50.352;19.390;2023-06-05T05:40:55;98287.23;;;16.57;52.77
50011;BME280;35899;50.352;19.390;2023-06-05T05:43:21;98287.55;;;16.69;52.52
50011;BME280;35899;50.352;19.390;2023-06-05T05:45:48;98289.02;;;16.84;52.52
50011;BME280;35899;50.352;19.390;2023-06-05T05:48:14;98288.34;;;16.97;52.15
50011;BME280;35899;50.352;19.390;2023-06-05T05:50:41;98289.98;;;17.12;52.25
50011;BME280;35899;50.352;19.390;2023-06-05T05:53:07;98289.23;;;17.28;51.60
50011;BME280;35899;50.352;19.390;2023-06-05T05:55:34;98288.92;;;17.41;50.89
50011;BME280;35899;50.352;19.390;2023-06-05T05:58:00;98286.70;;;17.53;50.63
50011;BME280;35899;50.352;19.390;2023-06-05T06:00:27;98287.88;;;17.67;50.41
50011;BME280;35899;50.352;19.390;2023-06-05T06:02:53;98289.29;;;17.78;50.01
50011;BME280;35899;50.352;19.390;2023-06-05T06:05:20;98291.90;;;17.90;49.66
50011;BME280;35899;50.352;19.390;2023-06-05T06:07:47;98291.00;;;18.02;49.43
50011;BME280;35899;50.352;19.390;2023-06-05T06:10:13;98287.49;;;18.12;49.28
50011;BME280;35899;50.352;19.390;2023-06-05T06:12:40;98291.95;;;18.24;49.16
50011;BME280;35899;50.352;19.390;2023-06-05T06:15:07;98296.11;;;18.36;49.28
50011;BME280;35899;50.352;19.390;2023-06-05T06:17:33;98294.38;;;18.47;49.05
50011;BME280;35899;50.352;19.390;2023-06-05T06:20:03;98298.66;;;18.59;48.68
50011;BME280;35899;50.352;19.390;2023-06-05T06:22:30;98298.90;;;18.69;48.54
50011;BME280;35899;50.352;19.390;2023-06-05T06:24:56;98295.34;;;18.80;48.60
50011;BME280;35899;50.352;19.390;2023-06-05T06:27:23;98297.52;;;18.94;48.51
50011;BME280;35899;50.352;19.390;2023-06-05T06:30:01;98299.83;;;19.08;48.52
50011;BME280;35899;50.352;19.390;2023-06-05T06:32:28;98302.30;;;19.23;48.88
50011;BME280;35899;50.352;19.390;2023-06-05T06:34:55;98300.84;;;19.38;48.62
50011;BME280;35899;50.352;19.390;2023-06-05T06:37:22;98304.42;;;19.53;48.68
50011;BME280;35899;50.352;19.390;2023-06-05T06:39:48;98302.79;;;19.67;48.15
50011;BME280;35899;50.352;19.390;2023-06-05T06:42:15;98303.05;;;19.79;47.73
50011;BME280;35899;50.352;19.390;2023-06-05T06:44:50;98297.77;;;19.91;47.33
50011;BME280;35899;50.352;19.390;2023-06-05T06:47:17;98295.19;;;19.99;46.81
50011;BME280;35899;50.352;19.390;2023-06-05T06:49:43;98288.45;;;20.06;46.76
50011;BME280;35899;50.352;19.390;2023-06-05T06:52:10;98293.53;;;20.17;46.62
50011;BME280;35899;50.352;19.390;2023-06-05T06:54:36;98292.75;;;20.29;46.21
50011;BME280;35899;50.352;19.390;2023-06-05T06:57:03;98293.11;;;20.40;45.54
50011;BME280;35899;50.352;19.390;2023-06-05T06:59:29;98293.95;;;20.50;45.70
50011;BME280;35899;50.352;19.390;2023-06-05T07:04:51;98293.56;;;20.70;44.49
50011;BME280;35899;50.352;19.390;2023-06-05T07:07:18;98292.94;;;20.81;44.24
50011;BME280;35899;50.352;19.390;2023-06-05T07:09:45;98289.33;;;20.91;44.23
50011;BME280;35899;50.352;19.390;2023-06-05T07:12:12;98290.41;;;21.01;44.03
50011;BME280;35899;50.352;19.390;2023-06-05T07:14:39;98292.91;;;21.13;43.65
50011;BME280;35899;50.352;19.390;2023-06-05T07:17:06;98294.59;;;21.19;42.47
50011;BME280;35899;50.352;19.390;2023-06-05T07:19:34;98292.17;;;21.23;42.18
50011;BME280;35899;50.352;19.390;2023-06-05T07:22:01;98285.63;;;21.31;42.13
50011;BME280;35899;50.352;19.390;2023-06-05T07:24:28;98286.09;;;21.42;42.02
50011;BME280;35899;50.352;19.390;2023-06-05T07:26:56;98289.55;;;21.49;40.90
50011;BME280;35899;50.352;19.390;2023-06-05T07:29:23;98288.43;;;21.53;40.66
50011;BME280;35899;50.352;19.390;2023-06-05T07:31:50;98286.79;;;21.61;40.05
50011;BME280;35899;50.352;19.390;2023-06-05T07:34:17;98283.70;;;21.69;39.86
50011;BME280;35899;50.352;19.390;2023-06-05T07:36:45;98285.63;;;21.75;39.24
50011;BME280;35899;50.352;19.390;2023-06-05T07:39:12;98289.27;;;21.80;38.90
50011;BME280;35899;50.352;19.390;2023-06-05T07:41:39;98295.98;;;21.86;38.35
50011;BME280;35899;50.352;19.390;2023-06-05T07:44:09;98292.40;;;21.92;37.97
50011;BME280;35899;50.352;19.390;2023-06-05T07:46:36;98291.92;;;21.98;37.94
50011;BME280;35899;50.352;19.390;2023-06-05T07:49:03;98297.52;;;22.09;37.95
50011;BME280;35899;50.352;19.390;2023-06-05T07:51:29;98293.15;;;22.16;37.52
50011;BME280;35899;50.352;19.390;2023-06-05T07:53:56;98289.69;;;22.25;37.58
50011;BME280;35899;50.352;19.390;2023-06-05T07:56:22;98291.95;;;22.39;37.90
50011;BME280;35899;50.352;19.390;2023-06-05T07:58:49;98290.67;;;22.53;37.51
50011;BME280;35899;50.352;19.390;2023-06-05T08:01:15;98289.05;;;22.59;36.63
50011;BME280;35899;50.352;19.390;2023-06-05T08:03:42;98286.70;;;22.64;36.96
50011;BME280;35899;50.352;19.390;2023-06-05T08:06:09;98285.76;;;22.76;37.39
50011;BME280;35899;50.352;19.390;2023-06-05T08:08:36;98285.28;;;22.89;37.00
50011;BME280;35899;50.352;19.390;2023-06-05T08:11:03;98286.84;;;22.94;36.19
50011;BME280;35899;50.352;19.390;2023-06-05T08:13:29;98285.79;;;22.97;36.01
50011;BME280;35899;50.352;19.390;2023-06-05T08:15:56;98286.98;;;23.04;35.39
50011;BME280;35899;50.352;19.390;2023-06-05T08:18:22;98290.25;;;23.09;35.59
50011;BME280;35899;50.352;19.390;2023-06-05T08:20:49;98289.80;;;23.17;35.51
50011;BME280;35899;50.352;19.390;2023-06-05T08:23:15;98287.65;;;23.25;35.37
50011;BME280;35899;50.352;19.390;2023-06-05T08:25:42;98291.89;;;23.36;35.28
50011;BME280;35899;50.352;19.390;2023-06-05T08:28:08;98295.83;;;23.46;34.82
50011;BME280;35899;50.352;19.390;2023-06-05T08:30:35;98286.17;;;23.58;34.84
50011;BME280;35899;50.352;19.390;2023-06-05T08:33:01;98288.85;;;23.73;34.91
50011;BME280;35899;50.352;19.390;2023-06-05T08:35:28;98290.01;;;23.85;34.54
50011;BME280;35899;50.352;19.390;2023-06-05T08:37:54;98289.23;;;23.94;34.27
50011;BME280;35899;50.352;19.390;2023-06-05T08:40:21;98290.85;;;24.03;33.92
50011;BME280;35899;50.352;19.390;2023-06-05T08:42:49;98288.91;;;24.01;33.07
50011;BME280;35899;50.352;19.390;2023-06-05T08:45:15;98290.58;;;24.01;33.29
50011;BME280;35899;50.352;19.390;2023-06-05T08:47:42;98288.31;;;24.02;33.09
50011;BME280;35899;50.352;19.390;2023-06-05T08:50:10;98287.63;;;24.06;33.19
50011;BME280;35899;50.352;19.390;2023-06-05T08:52:37;98285.31;;;24.14;33.34
50011;BME280;35899;50.352;19.390;2023-06-05T08:55:04;98286.58;;;24.28;33.04
50011;BME280;35899;50.352;19.390;2023-06-05T08:57:32;98276.56;;;24.38;32.49
50011;BME280;35899;50.352;19.390;2023-06-05T08:59:59;98279.88;;;24.43;32.56
50011;BME280;35899;50.352;19.390;2023-06-05T09:02:27;98276.64;;;24.52;32.98
50011;BME280;35899;50.352;19.390;2023-06-05T09:04:54;98281.80;;;24.65;32.83
50011;BME280;35899;50.352;19.390;2023-06-05T09:07:20;98280.25;;;24.77;32.12
50011;BME280;35899;50.352;19.390;2023-06-05T09:09:47;98277.45;;;24.88;32.25
50011;BME280;35899;50.352;19.390;2023-06-05T09:12:13;98277.25;;;25.00;31.76
50011;BME280;35899;50.352;19.390;2023-06-05T09:14:39;98274.32;;;25.13;31.52
50011;BME280;35899;50.352;19.390;2023-06-05T09:17:11;98275.93;;;25.22;31.18
50011;BME280;35899;50.352;19.390;2023-06-05T09:19:38;98276.09;;;25.34;31.35
50011;BME280;35899;50.352;19.390;2023-06-05T09:22:08;98273.52;;;25.48;31.16
50011;BME280;35899;50.352;19.390;2023-06-05T09:24:35;98271.98;;;25.58;31.84
50011;BME280;35899;50.352;19.390;2023-06-05T09:27:03;98272.02;;;25.78;31.48
50011;BME280;35899;50.352;19.390;2023-06-05T09:32:02;98269.45;;;26.01;30.56
50011;BME280;35899;50.352;19.390;2023-06-05T09:34:30;98273.54;;;26.22;30.59
50011;BME280;35899;50.352;19.390;2023-06-05T09:36:58;98270.98;;;26.32;30.40
50011;BME280;35899;50.352;19.390;2023-06-05T09:39:25;98268.69;;;26.48;30.43
50011;BME280;35899;50.352;19.390;2023-06-05T09:41:53;98262.65;;;26.59;30.01
50011;BME280;35899;50.352;19.390;2023-06-05T09:44:19;98261.84;;;26.79;30.90
50011;BME280;35899;50.352;19.390;2023-06-05T09:47:02;98264.64;;;26.94;30.13
50011;BME280;35899;50.352;19.390;2023-06-05T09:49:30;98257.83;;;27.06;29.85
50011;BME280;35899;50.352;19.390;2023-06-05T09:51:58;98257.86;;;27.33;30.13
50011;BME280;35899;50.352;19.390;2023-06-05T09:54:26;98255.63;;;27.51;29.65
50011;BME280;35899;50.352;19.390;2023-06-05T09:56:55;98257.19;;;27.62;29.73
50011;BME280;35899;50.352;19.390;2023-06-05T09:59:22;98254.09;;;27.72;29.47
50011;BME280;35899;50.352;19.390;2023-06-05T10:01:52;98254.34;;;27.86;28.88
50011;BME280;35899;50.352;19.390;2023-06-05T10:04:20;98252.30;;;28.08;28.51
50011;BME280;35899;50.352;19.390;2023-06-05T10:06:48;98245.95;;;28.23;28.63
50011;BME280;35899;50.352;19.390;2023-06-05T10:09:15;98248.29;;;28.60;28.76
50011;BME280;35899;50.352;19.390;2023-06-05T10:11:42;98243.24;;;28.97;28.53
50011;BME280;35899;50.352;19.390;2023-06-05T10:17:37;98242.66;;;29.77;27.97
50011;BME280;35899;50.352;19.390;2023-06-05T10:20:17;98234.92;;;29.97;26.64
50011;BME280;35899;50.352;19.390;2023-06-05T10:23:47;98240.67;;;30.35;27.33
50011;BME280;35899;50.352;19.390;2023-06-05T10:26:35;98237.33;;;30.68;26.93
50011;BME280;35899;50.352;19.390;2023-06-05T10:33:16;98235.48;;;31.22;25.66
50011;BME280;35899;50.352;19.390;2023-06-05T10:39:34;98239.14;;;31.42;24.97
50011;BME280;35899;50.352;19.390;2023-06-05T11:11:56;98223.66;;;35.80;21.91
50011;BME280;35899;50.352;19.390;2023-06-05T11:14:23;98228.01;;;36.03;20.89
50011;BME280;35899;50.352;19.390;2023-06-05T11:16:50;98225.92;;;36.27;20.81
50011;BME280;35899;50.352;19.390;2023-06-05T11:24:31;98221.09;;;37.31;20.02
50011;BME280;35899;50.352;19.390;2023-06-05T11:26:57;98221.58;;;37.71;19.12
50011;BME280;35899;50.352;19.390;2023-06-05T11:29:24;98218.66;;;38.00;18.87
50011;BME280;35899;50.352;19.390;2023-06-05T11:31:50;98219.81;;;38.46;18.95
50011;BME280;35899;50.352;19.390;2023-06-05T11:34:17;98223.69;;;38.84;18.84
50011;BME280;35899;50.352;19.390;2023-06-05T11:36:44;98227.93;;;39.08;18.25
50011;BME280;35899;50.352;19.390;2023-06-05T11:39:11;98225.04;;;39.24;18.08
50011;BME280;35899;50.352;19.390;2023-06-05T11:41:47;98218.59;;;39.44;17.71
50011;BME280;35899;50.352;19.390;2023-06-05T11:44:31;98220.27;;;39.86;17.66
50011;BME280;35899;50.352;19.390;2023-06-05T11:46:57;98218.80;;;40.13;17.50
50011;BME280;35899;50.352;19.390;2023-06-05T11:49:27;98219.48;;;40.45;17.53
50011;BME280;35899;50.352;19.390;2023-06-05T11:52:02;98215.46;;;40.85;17.19
50011;BME280;35899;50.352;19.390;2023-06-05T11:54:33;98215.69;;;41.04;16.54
50011;BME280;35899;50.352;19.390;2023-06-05T11:57:15;98207.34;;;41.10;16.11
50011;BME280;35899;50.352;19.390;2023-06-05T11:59:42;98208.10;;;41.15;15.99
50011;BME280;35899;50.352;19.390;2023-06-05T12:02:20;98205.98;;;41.34;16.14
50011;BME280;35899;50.352;19.390;2023-06-05T12:04:59;98200.73;;;41.85;16.04
50011;BME280;35899;50.352;19.390;2023-06-05T12:07:27;98204.13;;;42.12;15.59
50011;BME280;35899;50.352;19.390;2023-06-05T12:09:56;98201.75;;;42.46;15.72
50011;BME280;35899;50.352;19.390;2023-06-05T12:12:23;98195.55;;;42.63;15.48
50011;BME280;35899;50.352;19.390;2023-06-05T12:18:43;98193.71;;;42.93;14.92
50011;BME280;35899;50.352;19.390;2023-06-05T12:21:20;98194.60;;;43.11;14.34
50011;BME280;35899;50.352;19.390;2023-06-05T12:23:47;98189.74;;;43.43;14.21
50011;BME280;35899;50.352;19.390;2023-06-05T12:29:54;98192.98;;;44.06;14.31
50011;BME280;35899;50.352;19.390;2023-06-05T12:32:24;98198.17;;;44.01;14.23
50011;BME280;35899;50.352;19.390;2023-06-05T12:46:14;98183.19;;;45.22;13.79
50011;BME280;35899;50.352;19.390;2023-06-05T12:52:19;98179.18;;;45.77;13.68
50011;BME280;35899;50.352;19.390;2023-06-05T12:55:53;98174.75;;;46.23;13.42
50011;BME280;35899;50.352;19.390;2023-06-05T12:58:28;98168.66;;;46.50;12.93
50011;BME280;35899;50.352;19.390;2023-06-05T13:00:58;98164.86;;;46.26;12.71
50011;BME280;35899;50.352;19.390;2023-06-05T13:03:32;98165.67;;;46.14;12.76
50011;BME280;35899;50.352;19.390;2023-06-05T13:06:13;98164.37;;;46.26;12.82
50011;BME280;35899;50.352;19.390;2023-06-05T13:12:50;98157.38;;;47.19;12.37
50011;BME280;35899;50.352;19.390;2023-06-05T13:15:16;98155.45;;;46.86;12.58
50011;BME280;35899;50.352;19.390;2023-06-05T13:17:43;98151.85;;;45.66;13.11
50011;BME280;35899;50.352;19.390;2023-06-05T13:20:17;98156.92;;;45.41;13.20
50011;BME280;35899;50.352;19.390;2023-06-05T13:22:43;98159.74;;;43.56;13.59
50011;BME280;35899;50.352;19.390;2023-06-05T13:25:10;98150.75;;;41.74;14.06
50011;BME280;35899;50.352;19.390;2023-06-05T13:27:37;98145.70;;;42.70;14.09
50011;BME280;35899;50.352;19.390;2023-06-05T13:30:05;98146.52;;;43.91;13.81
50011;BME280;35899;50.352;19.390;2023-06-05T13:32:33;98147.98;;;44.69;13.44
50011;BME280;35899;50.352;19.390;2023-06-05T13:34:59;98144.16;;;42.85;14.04
50011;BME280;35899;50.352;19.390;2023-06-05T13:37:27;98141.22;;;40.89;14.95
50011;BME280;35899;50.352;19.390;2023-06-05T13:39:53;98143.97;;;39.18;15.53
50011;BME280;35899;50.352;19.390;2023-06-05T13:42:20;98139.56;;;38.73;16.13
50011;BME280;35899;50.352;19.390;2023-06-05T13:44:46;98138.73;;;40.06;15.95
50011;BME280;35899;50.352;19.390;2023-06-05T13:47:13;98139.02;;;39.28;16.30
50011;BME280;35899;50.352;19.390;2023-06-05T13:49:40;98139.61;;;39.88;15.88
50011;BME280;35899;50.352;19.390;2023-06-05T13:52:09;98135.38;;;40.72;15.47
50011;BME280;35899;50.352;19.390;2023-06-05T13:54:35;98127.60;;;41.24;15.37
50011;BME280;35899;50.352;19.390;2023-06-05T13:57:02;98131.48;;;39.87;15.79
50011;BME280;35899;50.352;19.390;2023-06-05T13:59:28;98123.48;;;38.76;16.23
50011;BME280;35899;50.352;19.390;2023-06-05T14:01:55;98120.41;;;39.23;15.70
50011;BME280;35899;50.352;19.390;2023-06-05T14:04:21;98119.18;;;38.98;16.19
50011;BME280;35899;50.352;19.390;2023-06-05T14:06:48;98115.67;;;38.68;16.51
50011;BME280;35899;50.352;19.390;2023-06-05T14:09:14;98111.81;;;40.47;15.98
50011;BME280;35899;50.352;19.390;2023-06-05T14:11:41;98111.38;;;42.24;15.44
50011;BME280;35899;50.352;19.390;2023-06-05T14:14:07;98107.23;;;43.53;14.44
50011;BME280;35899;50.352;19.390;2023-06-05T14:16:34;98108.23;;;44.26;14.03
50011;BME280;35899;50.352;19.390;2023-06-05T14:19:01;98107.27;;;44.47;13.86